Latest Weather Observations for Hobart Airport

IDT60801

Issued at 5:41 pm EDT Tuesday 26 March 2019 (issued every 10 minutes, with the page automatically refreshed every 10 minutes)

About weather observations | Map of weather stations | Latest weather observations for TAS | Other Formats
Station Details ID: 094008 Name: HOBART AIRPORT Lat: -42.83 Lon: 147.50 Height: 4.0 m
Data from the previous 72 hours. | See also: Recent months at Hobart Airport
Date/Time
EDT
Temp
°C
App
Temp
°C
Dew
Point
°C
Rel
Hum
%
Delta-T
°C
Wind Press
QNH
hPa
Press
MSL
hPa
Rain since
9am
mm
Dir  Spd
km/h
Gust
km/h
Spd
kts
Gust
kts
26/05:30pm 15.8 9.0 0.5 35 6.6 WNW 26 37 14 20 1013.0 1013.0 0.2
26/05:00pm 15.9 8.4 -1.5 30 7.2 WSW 28 37 15 20 1012.1 1012.1 0.2
26/04:46pm 16.7 8.8 -1.2 29 7.5 WSW 30 48 16 26 1011.9 1011.9 0.2
26/04:30pm 16.7 8.4 -1.6 28 7.6 WSW 32 46 17 25 1011.6 1011.6 0.2
26/04:00pm 16.6 7.9 -0.6 31 7.3 WSW 35 48 19 26 1011.3 1011.3 0.2
26/03:52pm 17.0 10.0 -0.3 31 7.4 WSW 26 48 14 26 1011.1 1011.1 0.2
26/03:30pm 15.9 9.9 1.3 37 6.4 SW 22 37 12 20 1010.7 1010.7 0.2
26/03:00pm 16.9 8.8 1.3 35 6.9 SW 33 44 18 24 1009.8 1009.7 0.2
26/02:30pm 15.6 8.1 1.2 37 6.3 WSW 30 46 16 25 1009.7 1009.6 0.2
26/02:00pm 15.6 7.6 1.5 38 6.2 SW 33 50 18 27 1009.4 1009.3 0.2
26/01:39pm 15.6 8.0 0.5 36 6.5 WSW 30 54 16 29 1008.9 1008.8 0.2
26/01:30pm 15.5 8.5 1.7 39 6.1 WSW 28 41 15 22 1008.8 1008.7 0.2
26/01:00pm 15.0 7.0 0.5 37 6.2 SW 32 57 17 31 1008.4 1008.3 0.2
26/12:57pm 15.1 7.9 0.4 36 6.3 WSW 28 48 15 26 1008.2 1008.1 0.2
26/12:30pm 14.5 7.8 1.7 42 5.6 WSW 26 37 14 20 1007.9 1007.8 0.2
26/12:00pm 14.9 9.8 3.2 45 5.3 WSW 19 30 10 16 1007.2 1007.1 0.2
26/11:30am 14.8 8.1 3.7 47 5.1 WNW 28 41 15 22 1006.6 1006.5 0.2
26/11:00am 13.2 9.0 5.6 60 3.6 SW 17 24 9 13 1006.1 1006.0 0.2
26/10:30am 13.8 8.0 2.5 46 5.0 WNW 22 32 12 17 1005.2 1005.1 0.0
26/10:00am 14.1 7.6 2.7 46 5.1 WNW 26 35 14 19 1004.3 1004.2 0.0
26/09:30am 14.0 7.4 1.9 44 5.3 WNW 26 39 14 21 1003.6 1003.5 0.0
26/09:00am 13.7 7.9 2.1 45 5.1 WNW 22 33 12 18 1003.1 1003.0 0.2
26/08:30am 13.4 5.0 1.3 43 5.2 WNW 35 48 19 26 1002.0 1001.9 0.2
26/08:00am 12.7 4.4 1.9 47 4.7 WNW 35 46 19 25 1001.2 1001.1 0.2
26/07:30am 12.6 4.3 2.0 48 4.6 WNW 35 50 19 27 1000.6 1000.5 0.2
26/07:24am 12.7 4.4 1.9 47 4.7 WNW 35 54 19 29 1000.6 1000.5 0.2
26/07:00am 12.6 4.7 2.0 48 4.6 WNW 33 43 18 23 999.9 999.8 0.2
26/06:30am 12.6 5.7 2.3 49 4.5 NW 28 48 15 26 999.3 999.2 0.2
26/06:00am 12.3 4.6 2.2 50 4.4 WNW 32 52 17 28 998.6 998.5 0.2
26/05:35am 12.6 4.2 1.4 46 4.8 WNW 35 54 19 29 997.7 997.6 0.2
26/05:30am 12.4 4.0 1.8 48 4.5 WNW 35 65 19 35 997.6 997.5 0.2
26/05:00am 12.4 3.2 1.5 47 4.7 WNW 39 63 21 34 996.7 996.7 0.2
26/04:30am 12.4 3.2 1.2 46 4.7 WNW 39 70 21 38 996.2 996.2 0.2
26/04:15am 12.6 4.1 1.1 45 4.9 WNW 35 69 19 37 995.4 995.4 0.2
26/04:14am 12.6 4.5 0.8 44 5.0 WNW 33 69 18 37 995.5 995.5 0.2
26/04:13am 12.6 4.7 0.8 44 5.0 NW 32 50 17 27 995.7 995.7 0.2
26/04:00am 12.2 5.9 1.8 49 4.5 WNW 24 35 13 19 995.8 995.8 0.2
26/03:30am 11.6 4.7 2.7 54 3.9 WNW 28 37 15 20 995.7 995.7 0.2
26/03:00am 11.6 2.5 1.8 51 4.2 WNW 39 57 21 31 995.3 995.3 0.2
26/02:43am 11.1 3.8 2.3 54 3.8 WNW 30 50 16 27 995.4 995.4 0.2
26/02:30am 10.9 5.5 2.6 56 3.6 NW 20 33 11 18 995.3 995.3 0.2
26/02:00am 10.3 4.3 3.2 61 3.1 NW 24 33 13 18 995.0 995.0 0.2
26/01:30am 9.5 3.3 4.1 69 2.4 NW 26 37 14 20 994.8 994.8 0.2
26/01:00am 9.0 2.0 4.3 72 2.1 WNW 30 39 16 21 994.7 994.7 0.2
26/12:30am 9.5 2.4 3.6 66 2.6 NW 30 43 16 23 995.0 995.0 0.2
26/12:24am 9.6 2.0 2.9 63 2.9 NW 32 50 17 27 994.8 994.8 0.2
26/12:00am 9.5 0.5 2.5 61 3.0 NW 39 54 21 29 994.8 994.8 0.2
 
Date/Time
EDT
Temp
°C
App
Temp
°C
Dew
Point
°C
Rel
Hum
%
Delta-T
°C
Wind Press
QNH
hPa
Press
MSL
hPa
Rain since
9am
mm
Dir  Spd
km/h
Gust
km/h
Spd
kts
Gust
kts
25/11:36pm 9.7 2.5 2.8 62 3.0 NNW 30 50 16 27 995.0 995.0 0.2
25/11:30pm 9.1 2.2 2.6 64 2.8 NNW 28 43 15 23 995.1 995.1 0.2
25/11:00pm 9.4 1.1 2.4 61 3.0 NNW 35 54 19 29 995.5 995.5 0.2
25/10:37pm 9.0 0.9 3.5 68 2.4 NW 35 54 19 29 995.3 995.3 0.2
25/10:30pm 8.6 -0.6 3.3 69 2.3 NW 41 56 22 30 995.3 995.3 0.2
25/10:00pm 8.8 -0.8 3.5 69 2.3 NW 43 57 23 31 995.5 995.5 0.2
25/09:38pm 8.8 -0.2 2.7 65 2.6 NW 39 57 21 31 995.5 995.5 0.2
25/09:30pm 8.8 -0.1 3.0 67 2.5 NW 39 52 21 28 995.3 995.3 0.2
25/09:00pm 9.3 -0.2 1.7 59 3.2 NNW 41 59 22 32 994.9 994.9 0.2
25/08:41pm 9.6 1.7 1.2 56 3.5 NNW 32 50 17 27 995.1 995.1 0.2
25/08:30pm 9.3 2.2 1.4 58 3.3 NNW 28 41 15 22 995.3 995.3 0.2
25/08:00pm 9.4 2.3 1.2 56 3.4 NNW 28 43 15 23 995.3 995.3 0.2
25/07:30pm 10.0 -0.7 0.2 50 4.0 NW 46 65 25 35 994.3 994.3 0.2
25/07:05pm 9.5 -0.8 0.1 52 3.8 NW 44 63 24 34 994.1 994.1 0.2
25/07:00pm 9.7 -0.5 -0.2 50 4.0 NW 43 57 23 31 994.1 994.1 0.2
25/06:30pm 9.9 0.2 0.4 51 3.9 NW 41 56 22 30 994.4 994.4 0.2
25/06:00pm 10.6 1.3 0.7 50 4.1 NNW 39 63 21 34 994.3 994.3 0.2
25/05:30pm 12.4 3.7 -0.8 40 5.3 NW 35 54 19 29 994.0 994.0 0.2
25/05:00pm 12.2 2.2 1.2 47 4.7 NW 43 59 23 32 993.5 993.5 0.2
25/04:40pm 12.6 1.4 -0.8 39 5.4 WNW 48 70 26 38 992.8 992.8 0.2
25/04:37pm 13.1 2.1 -2.1 35 6.0 NW 46 59 25 32 992.2 992.2 0.2
25/04:30pm 13.1 1.5 -0.7 38 5.6 NW 50 70 27 38 992.3 992.3 0.2
25/04:10pm 12.4 2.2 1.2 46 4.7 NW 44 65 24 35 992.1 992.1 0.2
25/04:00pm 12.3 2.3 2.0 49 4.5 NW 44 59 24 32 991.9 991.9 0.2
25/03:30pm 11.3 -0.7 1.4 50 4.2 NW 54 70 29 38 992.7 992.7 0.2
25/03:04pm 12.9 1.6 1.0 44 5.0 NW 50 69 27 37 992.6 992.6 0.0
25/03:00pm 12.3 0.5 0.4 44 5.0 NW 52 65 28 35 992.6 992.6 0.0
25/02:30pm 11.1 0.6 1.5 51 4.0 NW 46 63 25 34 992.8 992.8 0.0
25/02:00pm 12.1 -0.7 -0.2 42 5.1 NW 57 74 31 40 992.8 992.8 0.0
25/01:30pm 12.6 4.8 3.0 52 4.2 NNW 33 48 18 26 992.2 992.2 0.0
25/01:19pm 12.3 3.1 1.0 46 4.8 NW 39 57 21 31 992.2 992.2 0.0
25/01:00pm 11.8 3.4 1.8 50 4.3 NW 35 48 19 26 992.6 992.6 0.0
25/12:30pm 12.0 1.9 1.8 49 4.4 WNW 44 59 24 32 992.5 992.5 0.0
25/12:00pm 13.9 2.4 -0.1 38 5.9 NW 50 69 27 37 991.9 991.9 0.0
25/11:53am 13.8 2.7 -0.2 38 5.8 NW 48 69 26 37 991.8 991.8 0.0
25/11:30am 14.7 5.9 1.2 40 5.8 NW 37 50 20 27 991.7 991.7 0.0
25/11:00am 12.8 2.1 2.7 50 4.5 NW 48 70 26 38 991.6 991.6 0.0
25/10:38am 14.1 4.8 0.6 39 5.7 NW 39 57 21 31 991.3 991.3 0.0
25/10:30am 14.4 4.3 0.4 38 5.9 NW 43 56 23 30 991.4 991.4 0.0
25/10:02am 14.6 4.8 -0.3 36 6.2 NW 41 59 22 32 990.8 990.8 0.0
25/10:00am 15.0 5.6 0.1 36 6.4 NW 39 52 21 28 990.8 990.8 0.0
25/09:30am 14.6 4.9 0.7 38 5.9 NW 41 61 22 33 990.7 990.7 0.0
25/09:00am 14.5 5.3 1.2 40 5.8 NW 39 57 21 31 990.3 990.3 0.2
25/08:30am 14.0 4.0 2.3 45 5.1 NW 44 61 24 33 990.1 990.1 0.2
25/08:11am 13.9 4.7 1.3 42 5.4 NW 39 59 21 32 989.9 989.9 0.2
25/08:00am 13.9 5.1 1.3 42 5.5 NW 37 50 20 27 989.9 989.9 0.2
25/07:30am 13.9 2.0 1.9 44 5.2 NW 54 78 29 42 989.3 989.3 0.2
25/07:00am 14.9 3.7 1.6 40 5.9 NW 50 70 27 38 988.9 988.9 0.2
25/06:39am 15.4 3.8 1.7 39 6.0 NW 52 70 28 38 988.7 988.7 0.2
25/06:30am 15.7 3.3 1.2 37 6.3 NW 56 70 30 38 988.3 988.3 0.2
25/06:02am 16.4 5.1 1.4 36 6.6 NW 50 70 27 38 987.8 987.8 0.2
25/06:00am 16.5 5.7 1.9 37 6.6 NW 48 65 26 35 987.7 987.7 0.2
25/05:30am 17.1 5.9 1.9 36 6.8 NW 50 72 27 39 987.2 987.2 0.2
25/05:26am 17.1 6.6 3.5 40 6.3 NW 48 72 26 39 987.4 987.4 0.2
25/05:05am 17.1 9.8 7.2 52 4.9 NW 35 54 19 29 987.5 987.5 0.2
25/05:00am 17.4 9.1 6.1 47 5.6 NW 39 54 21 29 987.7 987.7 0.2
25/04:30am 17.6 8.9 8.4 55 4.7 NW 44 59 24 32 987.7 987.7 0.2
25/04:18am 18.1 8.2 8.1 52 5.1 NW 50 74 27 40 987.1 987.1 0.2
25/04:15am 18.3 9.4 7.8 50 5.4 WNW 44 74 24 40 986.9 986.9 0.2
25/04:08am 18.6 11.0 9.2 54 4.9 WNW 39 57 21 31 986.6 986.6 0.2
25/04:00am 19.2 10.4 9.7 54 5.1 WNW 46 57 25 31 986.3 986.3 0.2
25/03:46am 20.4 14.3 10.4 52 5.4 NW 33 52 18 28 986.0 986.0 0.2
25/03:31am 19.7 15.2 12.7 64 3.9 NNW 28 46 15 25 985.8 985.8 0.2
25/03:30am 19.4 15.0 12.9 66 3.7 NNW 28 44 15 24 985.9 985.9 0.2
25/03:00am 20.1 14.8 12.5 61 4.3 N 32 48 17 26 986.1 986.1 0.2
25/02:57am 20.2 15.3 12.5 61 4.3 N 30 48 16 26 986.2 986.2 0.2
25/02:30am 17.2 14.8 13.7 80 2.0 N 19 32 10 17 987.1 987.1 0.2
25/02:00am 17.3 14.6 12.9 75 2.5 N 19 28 10 15 988.1 988.1 0.2
25/01:30am 17.8 14.0 12.5 71 2.9 NNE 24 39 13 21 988.9 988.9 0.2
25/01:00am 18.7 14.6 11.5 63 4.0 NNE 24 35 13 19 989.8 989.8 0.0
25/12:30am 19.0 14.9 11.4 61 4.2 N 24 33 13 18 991.2 991.2 0.0
25/12:00am 18.8 15.8 11.8 64 3.9 NNE 19 30 10 16 992.1 992.1 0.0
 
Date/Time
EDT
Temp
°C
App
Temp
°C
Dew
Point
°C
Rel
Hum
%
Delta-T
°C
Wind Press
QNH
hPa
Press
MSL
hPa
Rain since
9am
mm
Dir  Spd
km/h
Gust
km/h
Spd
kts
Gust
kts
24/11:30pm 18.5 14.1 11.8 65 3.7 NNE 26 39 14 21 993.7 993.7 0.0
24/11:00pm 18.4 15.4 11.9 66 3.6 NNE 19 26 10 14 994.8 994.8 0.0
24/10:30pm 18.2 16.0 12.1 67 3.4 NNE 15 20 8 11 995.5 995.5 0.0
24/10:00pm 18.0 16.3 12.3 69 3.2 NNE 13 17 7 9 996.6 996.6 0.0
24/09:30pm 18.2 15.4 12.5 69 3.2 NNE 19 28 10 15 997.3 997.2 0.0
24/09:00pm 19.2 16.0 11.8 62 4.1 N 20 30 11 16 998.1 998.0 0.0
24/08:30pm 19.6 14.7 11.3 58 4.6 N 28 37 15 20 998.4 998.3 0.0
24/08:00pm 20.7 15.8 10.0 50 5.8 N 26 37 14 20 998.3 998.2 0.0
24/07:30pm 21.3 16.6 9.4 46 6.4 N 24 35 13 19 998.4 998.3 0.0
24/07:00pm 23.0 18.0 6.3 34 8.6 NNW 22 35 12 19 998.4 998.3 0.0
24/06:30pm 23.8 18.5 4.9 29 9.5 NNW 22 37 12 20 998.6 998.5 0.0
24/06:00pm 24.3 18.9 4.6 28 9.9 NNW 22 33 12 18 998.7 998.6 0.0
24/05:30pm 24.2 18.6 5.3 29 9.5 NNW 24 37 13 20 999.1 999.0 0.0
24/05:00pm 23.0 21.3 12.3 51 6.1 W 13 17 7 9 999.8 999.7 0.0
24/04:30pm 23.7 21.1 10.6 43 7.3 WNW 15 26 8 14 1000.2 1000.1 0.0
24/04:00pm 22.7 19.1 13.2 55 5.5 NE 24 35 13 19 1000.7 1000.6 0.0
24/03:30pm 22.2 19.1 13.4 57 5.1 NE 22 32 12 17 1001.5 1001.4 0.0
24/03:00pm 22.2 20.7 13.0 56 5.3 ENE 13 20 7 11 1002.2 1002.1 0.0
24/02:30pm 21.8 20.0 13.3 58 4.9 ESE 15 26 8 14 1002.6 1002.5 0.0
24/02:00pm 21.3 18.4 12.9 58 4.8 SSE 20 28 11 15 1003.6 1003.5 0.0
24/01:30pm 21.3 19.2 12.3 56 5.1 SE 15 22 8 12 1004.4 1004.3 0.0
24/01:00pm 20.1 16.7 11.2 56 4.9 SE 20 26 11 14 1005.1 1005.0 0.0
24/12:30pm 20.6 18.9 12.3 59 4.7 SSE 13 17 7 9 1005.8 1005.7 0.0
24/12:00pm 19.6 17.2 12.7 64 3.9 SSE 17 19 9 10 1006.2 1006.1 0.0
24/11:30am 19.8 17.5 12.9 64 3.9 SSE 17 22 9 12 1006.7 1006.6 0.0
24/11:00am 20.0 18.1 11.7 59 4.6 WNW 13 17 7 9 1007.2 1007.1 0.0
24/10:30am 20.3 17.4 9.7 50 5.7 NNW 15 20 8 11 1007.5 1007.4 0.0
24/10:00am 20.2 17.1 10.2 52 5.4 NW 17 24 9 13 1007.5 1007.4 0.0
24/09:30am 19.4 17.1 10.5 56 4.8 NW 13 19 7 10 1007.3 1007.2 0.0
24/09:00am 18.1 15.1 10.7 62 4.0 NW 17 19 9 10 1007.2 1007.1 0.4
24/08:30am 17.4 15.2 10.9 65 3.5 NW 13 17 7 9 1007.2 1007.1 0.4
24/08:00am 16.2 14.1 11.0 71 2.8 N 13 17 7 9 1007.3 1007.2 0.4
24/07:30am 16.0 14.4 11.4 74 2.5 NNW 11 15 6 8 1006.8 1006.7 0.4
24/07:00am 16.3 14.9 12.1 76 2.3 NNW 11 15 6 8 1006.5 1006.4 0.4
24/06:30am 17.1 15.2 10.4 64 3.6 N 11 15 6 8 1005.9 1005.8 0.4
24/06:00am 17.6 15.3 10.3 62 3.9 NW 13 15 7 8 1005.6 1005.5 0.4
24/05:30am 18.0 17.9 10.8 63 3.9 NNW 2 9 1 5 1005.6 1005.5 0.4
24/05:00am 18.2 15.7 11.2 63 3.8 NW 15 20 8 11 1005.3 1005.2 0.4
24/04:30am 17.9 16.2 12.3 70 3.1 NW 13 15 7 8 1004.9 1004.8 0.4
24/04:00am 18.0 15.5 12.2 69 3.2 NW 17 24 9 13 1004.7 1004.6 0.4
24/03:30am 18.3 15.5 12.6 69 3.2 NW 19 26 10 14 1004.5 1004.4 0.4
24/03:00am 18.2 17.3 13.8 75 2.5 NNW 11 19 6 10 1004.3 1004.2 0.4
24/02:30am 18.3 17.0 13.8 75 2.6 NW 13 15 7 8 1004.6 1004.5 0.4
24/02:00am 19.3 18.6 14.3 73 2.9 NW 11 15 6 8 1004.2 1004.1 0.4
24/01:30am 19.5 18.9 14.5 73 2.9 NNW 11 15 6 8 1004.1 1004.0 0.4
24/01:00am 19.4 18.2 15.0 75 2.6 NNW 15 20 8 11 1004.3 1004.2 0.4
24/12:30am 19.7 19.2 14.8 73 2.9 NNW 11 15 6 8 1004.0 1003.9 0.4
24/12:00am 19.9 18.8 14.4 70 3.2 NNW 13 19 7 10 1004.1 1004.0 0.4
 
Date/Time
EDT
Temp
°C
App
Temp
°C
Dew
Point
°C
Rel
Hum
%
Delta-T
°C
Wind Press
QNH
hPa
Press
MSL
hPa
Rain since
9am
mm
Dir  Spd
km/h
Gust
km/h
Spd
kts
Gust
kts
23/11:30pm 19.8 18.6 14.1 69 3.3 NNW 13 22 7 12 1003.9 1003.8 0.4
23/11:00pm 19.9 18.2 13.6 67 3.6 NNW 15 20 8 11 1003.6 1003.5 0.4
23/10:30pm 19.9 17.4 13.5 66 3.7 N 19 26 10 14 1003.4 1003.3 0.4
23/10:00pm 20.1 17.5 13.3 65 3.9 N 19 26 10 14 1003.4 1003.3 0.4
23/09:30pm 19.5 17.0 13.4 68 3.5 N 19 30 10 16 1003.5 1003.4 0.4
23/09:00pm 19.2 16.5 13.6 70 3.2 NNW 20 30 11 16 1003.3 1003.2 0.4
23/08:30pm 19.2 17.4 13.4 69 3.3 N 15 20 8 11 1003.0 1002.9 0.4
23/08:00pm 19.6 19.4 13.5 68 3.5 N 7 19 4 10 1003.0 1002.9 0.4
23/07:30pm 19.3 17.7 13.9 71 3.1 N 15 24 8 13 1003.0 1002.9 0.4
23/07:00pm 19.6 18.7 13.7 68 3.4 NNE 11 15 6 8 1003.1 1003.0 0.4
23/06:30pm 19.5 19.4 13.8 69 3.3 N 7 11 4 6 1003.2 1003.1 0.4
23/06:00pm 19.2 18.6 13.6 70 3.2 N 9 11 5 6 1003.3 1003.2 0.4

Other formats

Comma delimited format used in spreadsheet applications
http://www.bom.gov.au/fwo/IDT60801/IDT60801.94975.axf

JavaScript Object Notation format (JSON) in row-major order
http://www.bom.gov.au/fwo/IDT60801/IDT60801.94975.json

Data quality

Most of these data are generated automatically and are frequently updated. Quality checks on data are not normally performed. It is possible for incorrect values to appear. Refer to information at About Latest Weather Observations and please check the disclaimer before using these data.